Time;durP1;ratioP1;P1;durP2;ratioP2;P2;SDS_P1;SDS_P2;PMS_P1;PMS_P2;Temp;Humidity;BMP_temperature;BMP_pressure;BME280_temperature;BME280_humidity;BME280_pressure;Samples;Min_cycle;Max_cycle;Signal;HPM_P1;HPM_P2
2022/03/18 00:00:24;;;;;;;24.80;4.78;;;;;;;-2.72;38.91;102037.72;4881854;29;20179;-63
2022/03/18 00:03:24;;;;;;;26.08;5.90;;;;;;;-2.65;38.65;102038.69;4865957;29;20076;-63
2022/03/18 00:05:51;;;;;;;18.20;4.38;;;;;;;-2.61;38.88;102030.97;4899085;29;20052;-63
2022/03/18 00:08:18;;;;;;;25.77;7.30;;;;;;;-2.57;39.01;102029.59;4898919;29;20055;-63
2022/03/18 00:10:44;;;;;;;15.75;4.43;;;;;;;-2.60;39.40;102022.59;4899014;29;20056;-66
2022/03/18 00:13:11;;;;;;;15.48;4.35;;;;;;;-2.60;39.61;102024.50;4897538;29;20061;-67
2022/03/18 00:15:38;;;;;;;15.82;5.13;;;;;;;-2.67;39.09;102018.94;4899137;29;20116;-67
2022/03/18 00:18:05;;;;;;;14.25;4.38;;;;;;;-2.71;39.48;102017.66;4881985;29;20048;-66
2022/03/18 00:20:32;;;;;;;16.52;4.93;;;;;;;-2.75;39.48;102021.75;4898527;29;20084;-67
2022/03/18 00:22:59;;;;;;;13.30;4.07;;;;;;;-2.74;40.16;102023.47;4898784;29;20131;-66
2022/03/18 00:25:26;;;;;;;25.05;4.65;;;;;;;-2.77;39.54;102021.09;4898539;29;20084;-66
2022/03/18 00:27:53;;;;;;;20.70;4.85;;;;;;;-2.81;39.72;102022.50;4898980;29;20055;-67
2022/03/18 00:30:20;;;;;;;16.25;4.38;;;;;;;-2.85;40.51;102015.72;4898515;29;20056;-68
2022/03/18 00:32:51;;;;;;;29.02;5.13;;;;;;;-2.87;39.91;102020.50;4899031;29;20044;-66
2022/03/18 00:35:35;;;;;;;29.23;4.43;;;;;;;-2.88;40.48;102021.56;4897948;29;20056;-66
2022/03/18 00:38:03;;;;;;;16.65;4.93;;;;;;;-2.94;40.42;102022.28;4898790;29;20198;-65
2022/03/18 00:40:31;;;;;;;11.98;4.53;;;;;;;-2.99;40.10;102019.25;4881472;29;20044;-67
2022/03/18 00:51:58;;;;;;;12.95;4.10;;;;;;;-3.09;40.30;102026.84;4897229;29;20084;-65
2022/03/18 00:52:37;;;;;;;14.57;4.05;;;;;;;-3.04;40.14;102021.72;4895430;29;20134;-66
2022/03/18 00:55:04;;;;;;;15.27;4.07;;;;;;;-3.04;40.80;102021.72;4897871;29;20542;-66
2022/03/18 00:57:32;;;;;;;16.88;4.30;;;;;;;-3.01;40.53;102018.63;4897875;29;20084;-65
2022/03/18 00:59:58;;;;;;;14.07;4.32;;;;;;;-2.99;40.79;102018.44;4897926;29;20468;-66
2022/03/18 01:02:26;;;;;;;14.88;4.50;;;;;;;-3.01;40.56;102015.03;4897770;29;20462;-66
2022/03/18 01:04:53;;;;;;;20.27;4.20;;;;;;;-3.00;40.50;102023.03;4897502;29;20064;-66
2022/03/18 01:07:20;;;;;;;13.30;4.25;;;;;;;-2.96;40.50;102012.63;4897587;29;20132;-66
2022/03/18 01:09:47;;;;;;;17.73;4.47;;;;;;;-2.91;40.29;102016.47;4898140;29;20052;-66
2022/03/18 01:12:14;;;;;;;13.95;4.05;;;;;;;-2.88;40.57;102021.56;4897225;29;20056;-66
2022/03/18 01:14:41;;;;;;;15.32;4.82;;;;;;;-2.88;41.20;102020.69;4881023;29;20056;-66
2022/03/18 01:17:08;;;;;;;10.63;3.75;;;;;;;-2.91;41.00;102027.38;4897249;29;20107;-66
2022/03/18 01:19:35;;;;;;;17.98;4.95;;;;;;;-2.91;40.84;102029.22;4897534;29;20059;-66
2022/03/18 01:22:02;;;;;;;12.48;4.03;;;;;;;-2.96;41.39;102032.50;4897429;29;20112;-67
2022/03/18 01:24:29;;;;;;;10.13;4.15;;;;;;;-3.09;41.26;102035.03;4897840;29;20072;-63
2022/03/18 01:26:56;;;;;;;20.30;4.55;;;;;;;-3.11;41.54;102044.41;4897299;29;20159;-63
2022/03/18 01:29:23;;;;;;;12.88;4.70;;;;;;;-3.07;41.71;102046.59;4897410;29;20188;-62
2022/03/18 01:31:50;;;;;;;14.57;4.75;;;;;;;-3.03;41.08;102039.72;4897168;29;20077;-62
2022/03/18 01:34:17;;;;;;;18.00;4.93;;;;;;;-3.04;41.06;102037.19;4897355;29;20072;-63
2022/03/18 01:36:43;;;;;;;19.23;4.68;;;;;;;-3.10;41.31;102049.69;4897433;29;20059;-63
2022/03/18 01:39:12;;;;;;;12.63;4.25;;;;;;;-3.11;41.84;102056.13;4897479;29;20062;-62
2022/03/18 01:41:40;;;;;;;19.75;4.88;;;;;;;-3.09;41.43;102056.81;4897176;29;20135;-64
2022/03/18 01:44:11;;;;;;;18.85;3.97;;;;;;;-3.04;41.39;102051.66;4897442;29;20048;-61
2022/03/18 01:46:39;;;;;;;19.45;4.35;;;;;;;-3.03;41.26;102058.78;4897007;29;20147;-62
2022/03/18 01:49:07;;;;;;;13.55;4.50;;;;;;;-3.01;40.71;102053.16;4896937;29;20545;-63
2022/03/18 01:51:34;;;;;;;15.13;5.38;;;;;;;-3.03;41.38;102058.78;4897310;29;20056;-63
2022/03/18 01:56:49;;;;;;;14.20;4.82;;;;;;;-3.05;41.55;102052.66;4896754;29;20488;-63
2022/03/18 01:59:16;;;;;;;18.40;5.55;;;;;;;-3.05;41.10;102057.28;4876823;29;20095;-63
2022/03/18 02:01:43;;;;;;;19.05;4.50;;;;;;;-3.07;41.86;102049.31;4897176;29;20151;-63
2022/03/18 02:04:10;;;;;;;19.92;4.95;;;;;;;-3.12;41.45;102051.72;4896606;29;20053;-62
2022/03/18 02:06:38;;;;;;;12.40;4.40;;;;;;;-3.10;41.51;102060.56;4897387;29;20056;-62
2022/03/18 02:09:06;;;;;;;13.50;3.80;;;;;;;-3.09;41.77;102056.81;4896600;29;20057;-62
2022/03/18 02:11:33;;;;;;;10.85;4.45;;;;;;;-3.11;41.25;102053.41;4897226;29;20056;-62
2022/03/18 02:14:00;;;;;;;15.27;4.80;;;;;;;-3.12;41.85;102053.59;4896667;29;20056;-62
2022/03/18 02:16:27;;;;;;;12.75;4.55;;;;;;;-3.11;41.66;102055.31;4897123;29;20052;-62
2022/03/18 02:18:55;;;;;;;20.55;4.57;;;;;;;-3.10;42.16;102060.56;4896760;29;20083;-62
2022/03/18 02:21:24;;;;;;;15.50;4.15;;;;;;;-3.10;41.69;102060.56;4896675;29;20048;-63
2022/03/18 02:23:52;;;;;;;15.13;4.03;;;;;;;-3.17;41.64;102054.13;4880040;29;20496;-62
2022/03/18 02:26:19;;;;;;;19.40;4.55;;;;;;;-3.22;42.39;102062.03;4880344;29;20098;-62
2022/03/18 02:28:45;;;;;;;19.63;4.50;;;;;;;-3.21;41.71;102057.41;4896797;29;20472;-63
2022/03/18 02:31:12;;;;;;;13.38;3.75;;;;;;;-3.15;41.44;102060.25;4896901;29;20088;-62
2022/03/18 02:33:39;;;;;;;14.15;3.88;;;;;;;-3.15;41.82;102057.53;4896687;29;20559;-62
2022/03/18 02:36:06;;;;;;;14.80;4.32;;;;;;;-3.14;41.34;102064.66;4896486;29;20143;-63
2022/03/18 02:38:33;;;;;;;8.80;4.07;;;;;;;-3.12;41.84;102072.63;4896622;29;20057;-63
2022/03/18 02:41:00;;;;;;;15.57;4.60;;;;;;;-3.11;41.86;102072.47;4893421;29;20108;-64
2022/03/18 02:43:27;;;;;;;22.58;4.07;;;;;;;-3.11;42.18;102064.28;4896659;29;20465;-62
2022/03/18 02:45:54;;;;;;;16.63;4.68;;;;;;;-3.15;42.06;102065.69;4896400;29;20072;-63
2022/03/18 02:48:21;;;;;;;17.90;4.43;;;;;;;-3.15;42.44;102076.59;4896645;29;20057;-62
2022/03/18 02:50:48;;;;;;;10.30;3.75;;;;;;;-3.18;41.91;102068.78;4895978;29;20056;-63
2022/03/18 02:53:15;;;;;;;12.95;4.28;;;;;;;-3.20;41.80;102070.81;4896925;29;20419;-62
2022/03/18 02:55:42;;;;;;;17.73;4.68;;;;;;;-3.20;42.04;102073.56;4896151;29;20049;-62
2022/03/18 02:58:09;;;;;;;10.93;4.63;;;;;;;-3.19;42.08;102066.25;4896459;29;20152;-62
2022/03/18 03:00:36;;;;;;;14.95;5.03;;;;;;;-3.32;42.34;102053.22;4896147;29;20052;-63
2022/03/18 03:03:03;;;;;;;14.73;4.38;;;;;;;-3.30;42.28;102067.50;4896613;29;20068;-66
2022/03/18 03:08:16;;;;;;;11.70;4.28;;;;;;;-3.40;41.89;102064.19;4896232;29;20063;-67
2022/03/18 03:10:43;;;;;;;11.82;4.30;;;;;;;-3.44;42.20;102062.03;4896106;29;20056;-66
2022/03/18 03:13:10;;;;;;;13.82;4.45;;;;;;;-3.46;42.44;102072.22;4896478;29;20136;-66
2022/03/18 03:15:38;;;;;;;16.15;4.30;;;;;;;-3.52;41.85;102062.94;4899114;29;20080;-66
2022/03/18 03:18:06;;;;;;;15.00;4.35;;;;;;;-3.54;42.33;102073.13;4900246;29;20469;-63
2022/03/18 03:20:33;;;;;;;13.30;3.78;;;;;;;-3.53;42.53;102074.81;4899568;29;20147;-63
2022/03/18 03:23:01;;;;;;;13.93;4.25;;;;;;;-3.52;42.47;102078.38;4900060;29;20083;-62
2022/03/18 03:25:28;;;;;;;13.15;4.80;;;;;;;-3.53;41.87;102074.81;4899457;29;20081;-63
2022/03/18 03:27:55;;;;;;;12.77;4.32;;;;;;;-3.49;42.38;102080.75;4900125;29;20049;-63
2022/03/18 03:30:23;;;;;;;15.40;4.32;;;;;;;-3.50;42.29;102082.59;4899394;29;20060;-63
2022/03/18 03:32:50;;;;;;;14.82;4.40;;;;;;;-3.47;42.19;102089.59;4896615;29;20580;-63
2022/03/18 03:35:17;;;;;;;11.45;4.30;;;;;;;-3.44;42.72;102081.88;4899076;29;20135;-63
2022/03/18 03:37:45;;;;;;;24.25;5.43;;;;;;;-3.36;42.62;102081.84;4882593;29;20128;-63
2022/03/18 03:40:13;;;;;;;14.20;4.57;;;;;;;-3.30;42.45;102080.25;4899624;29;20139;-66
2022/03/18 03:42:41;;;;;;;15.80;4.57;;;;;;;-3.29;42.26;102082.81;4898891;29;20507;-67
2022/03/18 03:45:13;;;;;;;15.32;4.60;;;;;;;-3.27;42.04;102080.75;4899385;29;20439;-67
2022/03/18 03:47:41;;;;;;;11.15;3.78;;;;;;;-3.25;42.01;102077.84;4899311;29;20152;-66
2022/03/18 03:50:09;;;;;;;8.65;3.95;;;;;;;-3.27;42.23;102077.19;4899928;29;20398;-64
2022/03/18 03:52:37;;;;;;;26.38;4.55;;;;;;;-3.33;41.90;102070.59;4899247;29;20072;-63
2022/03/18 03:55:06;;;;;;;15.45;4.15;;;;;;;-3.33;41.72;102081.47;4899530;29;20128;-63
2022/03/18 03:57:33;;;;;;;16.48;4.25;;;;;;;-3.28;41.90;102079.06;4898945;29;20053;-64
2022/03/18 04:00:01;;;;;;;12.70;3.80;;;;;;;-3.31;41.99;102074.00;4899617;29;20526;-62
2022/03/18 04:02:28;;;;;;;12.02;4.18;;;;;;;-3.29;41.30;102074.63;4898572;29;20049;-62
2022/03/18 04:04:57;;;;;;;8.02;3.97;;;;;;;-3.24;41.22;102074.94;4882508;29;20048;-64
2022/03/18 04:07:25;;;;;;;17.25;3.63;;;;;;;-3.24;41.17;102080.41;4898581;29;20131;-63
2022/03/18 04:09:54;;;;;;;11.07;4.30;;;;;;;-3.23;41.58;102073.91;4899159;29;20481;-63
2022/03/18 04:12:21;;;;;;;17.48;4.03;;;;;;;-3.21;41.02;102071.88;4898482;29;20088;-63
2022/03/18 04:14:49;;;;;;;22.42;3.95;;;;;;;-3.15;40.61;102073.00;4899018;29;20048;-63
2022/03/18 04:17:16;;;;;;;10.70;3.47;;;;;;;-3.12;40.72;102076.22;4898577;29;20058;-63
2022/03/18 04:19:43;;;;;;;10.90;3.50;;;;;;;-3.09;40.53;102075.00;4899023;29;20136;-63
2022/03/18 04:22:10;;;;;;;9.82;3.92;;;;;;;-3.08;40.83;102074.00;4898384;29;20064;-63
2022/03/18 04:24:37;;;;;;;11.18;3.63;;;;;;;-3.03;39.91;102077.84;4895524;29;20096;-62
2022/03/18 04:27:04;;;;;;;19.45;4.45;;;;;;;-2.97;39.93;102066.22;4896804;29;20148;-64
2022/03/18 04:29:31;;;;;;;9.52;4.05;;;;;;;-2.93;40.05;102075.72;4898444;29;20048;-64
2022/03/18 04:31:58;;;;;;;8.85;4.28;;;;;;;-2.84;39.94;102071.88;4898832;29;20080;-63
2022/03/18 04:34:25;;;;;;;11.93;3.40;;;;;;;-2.81;39.85;102074.25;4898272;29;20041;-63
2022/03/18 04:36:52;;;;;;;14.15;4.18;;;;;;;-2.66;39.33;102066.94;4898422;29;20111;-63
2022/03/18 04:39:19;;;;;;;16.77;3.58;;;;;;;-2.50;39.91;102072.25;4898212;29;20096;-63
2022/03/18 04:41:47;;;;;;;15.57;3.83;;;;;;;-2.38;39.22;102072.63;4898600;29;20052;-62
2022/03/18 04:44:14;;;;;;;9.90;4.07;;;;;;;-2.27;39.41;102081.19;4898114;29;20053;-63
2022/03/18 04:46:41;;;;;;;15.25;3.95;;;;;;;-2.17;38.83;102075.44;4898615;29;20143;-63
2022/03/18 04:49:08;;;;;;;18.35;4.78;;;;;;;-2.10;38.86;102079.13;4898185;29;20055;-63
2022/03/18 04:51:35;;;;;;;15.63;4.13;;;;;;;-2.03;39.04;102080.91;4898344;29;20139;-63
2022/03/18 04:54:02;;;;;;;11.73;4.22;;;;;;;-1.94;38.89;102079.78;4897839;29;20143;-64
2022/03/18 04:59:14;;;;;;;13.00;4.00;;;;;;;-1.81;37.99;102075.53;4897510;29;20155;-67
2022/03/18 05:01:41;;;;;;;12.10;4.38;;;;;;;-1.74;38.35;102080.03;4897994;29;20088;-66
2022/03/18 05:04:08;;;;;;;10.73;3.70;;;;;;;-1.74;38.21;102076.44;4898001;29;20056;-67
2022/03/18 05:06:35;;;;;;;17.25;4.15;;;;;;;-1.72;38.21;102083.38;4898031;29;20147;-67
2022/03/18 05:09:03;;;;;;;24.88;7.53;;;;;;;-1.60;37.47;102086.47;4880836;29;20059;-67
2022/03/18 05:11:30;;;;;;;21.73;5.13;;;;;;;-1.46;37.56;102086.44;4898483;29;20155;-65
2022/03/18 05:13:58;;;;;;;14.00;4.88;;;;;;;-1.31;37.54;102097.28;4899853;29;20070;-64
2022/03/18 05:16:25;;;;;;;17.30;5.78;;;;;;;-1.23;37.40;102086.25;4927001;23;20145;-64
2022/03/18 05:18:58;;;;;;;15.73;4.43;;;;;;;-1.16;37.27;102093.50;4955447;29;20055;-66
2022/03/18 05:21:29;;;;;;;17.60;4.15;;;;;;;-0.87;36.62;102089.78;4934951;29;20421;-66
2022/03/18 05:24:03;;;;;;;10.95;4.00;;;;;;;-0.22;35.45;102090.28;4922423;29;20507;-67
2022/03/18 05:26:31;;;;;;;28.90;5.57;;;;;;;0.23;34.77;102086.97;4937179;29;20415;-64
2022/03/18 05:28:59;;;;;;;17.92;5.45;;;;;;;0.48;34.56;102079.94;4938879;29;20051;-63
2022/03/18 05:31:27;;;;;;;30.80;5.47;;;;;;;1.33;33.24;102083.66;4942026;29;20462;-64
2022/03/18 05:33:57;;;;;;;17.67;4.27;;;;;;;2.69;31.44;102078.88;4956520;29;20058;-66
2022/03/18 05:36:27;;;;;;;14.85;5.32;;;;;;;2.77;31.00;102069.53;4956933;28;20083;-64
2022/03/18 05:38:54;;;;;;;13.60;5.15;;;;;;;3.66;30.18;102073.75;4953828;28;20059;-67
2022/03/18 05:41:21;;;;;;;12.25;5.28;;;;;;;5.18;28.35;102075.25;4938951;29;20051;-67
2022/03/18 05:43:50;;;;;;;17.42;4.88;;;;;;;5.10;27.11;102070.06;4937828;29;20067;-64
2022/03/18 05:46:23;;;;;;;18.75;5.55;;;;;;;3.65;29.46;102077.56;4952778;28;20054;-66
2022/03/18 05:48:52;;;;;;;35.40;5.10;;;;;;;3.12;30.21;102068.06;4939856;29;20540;-66
2022/03/18 05:51:24;;;;;;;16.42;5.57;;;;;;;3.96;29.85;102071.13;4923345;29;20341;-67
2022/03/18 05:53:51;;;;;;;14.80;5.18;;;;;;;5.24;27.76;102072.38;4957902;29;20083;-64
2022/03/18 05:59:09;;;;;;;10.25;4.68;;;;;;;5.51;27.52;102070.84;4954356;29;20059;-64
2022/03/18 06:01:40;;;;;;;8.88;3.92;;;;;;;3.89;28.96;102076.69;4943572;29;20051;-64
2022/03/18 06:04:10;;;;;;;26.25;5.82;;;;;;;3.12;29.81;102074.41;4935602;29;20529;-64
2022/03/18 06:06:47;;;;;;;14.77;5.03;;;;;;;2.95;30.25;102076.00;4953848;28;20146;-66
2022/03/18 06:12:07;;;;;;;22.20;4.90;;;;;;;6.06;26.29;102068.63;4939068;29;20447;-67
2022/03/18 06:14:36;;;;;;;14.23;5.72;;;;;;;5.60;26.61;102080.47;4954672;29;20055;-66
2022/03/18 06:17:05;;;;;;;13.27;5.20;;;;;;;7.10;25.36;102063.63;4956285;28;20523;-64
2022/03/18 06:19:34;;;;;;;11.00;4.47;;;;;;;9.80;22.26;102071.13;4936841;29;20147;-64
2022/03/18 06:22:02;;;;;;;13.98;4.45;;;;;;;11.52;21.48;102054.88;4953746;29;20110;-63
2022/03/18 06:24:32;;;;;;;8.52;4.38;;;;;;;13.62;19.67;102060.88;4937912;29;20047;-63
2022/03/18 06:27:01;;;;;;;15.35;5.38;;;;;;;15.53;18.57;102053.84;4921056;29;20525;-65
2022/03/18 06:29:31;;;;;;;18.10;4.90;;;;;;;16.54;16.82;102042.50;4937095;29;20414;-65
2022/03/18 06:32:00;;;;;;;12.95;4.65;;;;;;;16.39;16.71;102039.94;4953498;28;20050;-68
2022/03/18 06:34:30;;;;;;;9.55;4.00;;;;;;;16.15;16.61;102039.31;4933990;29;20039;-66
2022/03/18 06:36:57;;;;;;;8.82;4.03;;;;;;;16.52;16.13;102044.75;4949832;28;20142;-65
2022/03/18 06:39:30;;;;;;;13.05;4.65;;;;;;;16.75;16.14;102042.91;4954371;29;20066;-64
2022/03/18 06:41:58;;;;;;;11.73;4.38;;;;;;;16.22;16.19;102043.38;4954454;28;20463;-67
2022/03/18 06:44:27;;;;;;;21.40;4.35;;;;;;;16.35;16.29;102031.31;4953514;29;20096;-66
2022/03/18 06:46:57;;;;;;;10.75;3.67;;;;;;;17.23;15.35;102044.09;4937489;29;20065;-63
2022/03/18 06:49:34;;;;;;;14.88;3.95;;;;;;;16.09;15.34;102041.38;4955963;28;20055;-65
2022/03/18 06:52:04;;;;;;;11.57;5.03;;;;;;;14.80;16.61;102038.66;4926679;29;20051;-66
2022/03/18 06:54:31;;;;;;;16.35;4.63;;;;;;;12.34;18.37;102032.22;4941637;29;20047;-68
2022/03/18 06:56:58;;;;;;;18.23;5.53;;;;;;;12.16;18.68;102032.81;4942262;29;20051;-68
2022/03/18 06:59:28;;;;;;;13.07;6.10;;;;;;;10.53;19.78;102028.47;4958900;29;20090;-67
2022/03/18 07:01:57;;;;;;;8.82;4.97;;;;;;;8.93;21.42;102030.88;4962092;28;20055;-63
2022/03/18 07:04:25;;;;;;;13.77;4.97;;;;;;;9.24;20.99;102028.13;4928756;29;20526;-66
2022/03/18 07:06:52;;;;;;;20.48;4.80;;;;;;;10.06;19.89;102031.25;4942222;29;20043;-66
2022/03/18 07:09:19;;;;;;;6.85;4.05;;;;;;;10.88;19.47;102023.03;4957648;29;20078;-64
2022/03/18 07:11:50;;;;;;;11.38;4.10;;;;;;;12.26;18.38;102025.25;4940080;29;20082;-65
2022/03/18 07:14:20;;;;;;;16.63;4.35;;;;;;;12.96;17.65;102012.13;4940560;29;20055;-64
2022/03/18 07:19:35;;;;;;;8.95;4.50;;;;;;;12.03;18.32;102014.75;4941042;29;20059;-67
2022/03/18 07:22:04;;;;;;;11.57;3.97;;;;;;;11.90;18.81;102015.31;4940466;29;20252;-66
2022/03/18 07:24:37;;;;;;;10.85;4.28;;;;;;;13.16;17.69;102009.22;4958283;29;20057;-65
2022/03/18 07:27:05;;;;;;;14.60;4.40;;;;;;;11.90;18.45;102020.06;4925350;29;20102;-63
2022/03/18 07:29:35;;;;;;;20.73;4.55;;;;;;;11.37;18.88;102009.47;4935260;29;20459;-64
2022/03/18 07:32:04;;;;;;;9.65;3.88;;;;;;;12.59;18.15;102010.63;4958621;28;20051;-66
2022/03/18 07:34:31;;;;;;;14.77;5.13;;;;;;;13.83;17.56;102007.25;4957988;29;20154;-67
2022/03/18 07:36:58;;;;;;;14.07;4.68;;;;;;;15.58;15.92;102000.47;4957859;28;20055;-66
2022/03/18 07:39:25;;;;;;;11.30;5.53;;;;;;;16.09;15.58;101990.84;4958106;29;20134;-64
2022/03/18 07:41:52;;;;;;;19.85;4.72;;;;;;;14.97;16.71;101999.72;4959422;28;20048;-65
2022/03/18 07:44:20;;;;;;;10.82;4.70;;;;;;;13.46;17.58;102003.38;4957790;29;20098;-67
2022/03/18 07:46:47;;;;;;;20.27;5.28;;;;;;;13.00;18.34;102002.06;4959208;28;20075;-64
2022/03/18 07:49:14;;;;;;;11.98;5.82;;;;;;;13.62;17.71;101999.34;4940988;29;20055;-66
2022/03/18 07:51:42;;;;;;;45.38;6.57;;;;;;;11.70;18.80;101987.47;4943718;23;20502;-67
2022/03/18 07:54:09;;;;;;;10.77;4.38;;;;;;;12.13;18.50;101992.38;4938055;29;20051;-67
2022/03/18 07:56:40;;;;;;;9.95;4.82;;;;;;;12.77;17.77;101990.41;4952317;28;20051;-65
2022/03/18 07:59:08;;;;;;;12.18;5.07;;;;;;;13.58;17.16;101992.66;4938303;29;20110;-66
2022/03/18 08:01:40;;;;;;;10.80;4.90;;;;;;;13.08;17.05;101993.06;4933066;29;20147;-65
2022/03/18 08:04:12;;;;;;;7.00;4.10;;;;;;;13.65;16.98;101988.38;4939895;29;20558;-63
2022/03/18 08:06:40;;;;;;;12.88;4.55;;;;;;;14.07;17.30;101990.50;4934360;29;20056;-66
2022/03/18 08:09:08;;;;;;;10.68;4.30;;;;;;;14.49;16.60;101979.38;4936502;29;20056;-67
2022/03/18 08:11:35;;;;;;;8.90;4.72;;;;;;;15.18;16.51;101989.88;4935709;29;20088;-67
2022/03/18 08:14:04;;;;;;;10.10;4.93;;;;;;;16.18;15.94;101986.16;4936278;29;20066;-66
2022/03/18 08:16:32;;;;;;;20.45;5.45;;;;;;;15.19;16.56;101975.53;4933324;29;20075;-65
2022/03/18 08:19:03;;;;;;;12.98;5.05;;;;;;;16.01;15.80;101982.28;4937342;29;20063;-63
2022/03/18 08:21:32;;;;;;;8.70;4.50;;;;;;;16.54;15.08;101969.44;4934579;29;20503;-63
2022/03/18 08:23:59;;;;;;;8.27;3.78;;;;;;;17.66;14.55;101977.75;4935946;29;20083;-63
2022/03/18 08:26:27;;;;;;;9.82;4.35;;;;;;;18.59;13.95;101983.03;4934987;29;20056;-67
2022/03/18 08:28:54;;;;;;;8.45;4.03;;;;;;;19.46;13.51;101974.38;4937214;29;20052;-65
2022/03/18 08:31:30;;;;;;;18.58;4.38;;;;;;;20.75;12.55;101972.78;4936165;29;20052;-64
2022/03/18 08:33:58;;;;;;;48.03;5.22;;;;;;;21.35;11.94;101967.53;4938311;29;20380;-65
2022/03/18 08:36:33;;;;;;;14.27;3.90;;;;;;;21.44;11.68;101968.28;4933782;29;20071;-65
2022/03/18 08:39:03;;;;;;;6.80;3.85;;;;;;;23.10;10.92;101968.06;4936124;29;20051;-64
2022/03/18 08:41:34;;;;;;;9.57;5.07;;;;;;;24.10;10.37;101967.78;4934971;29;20047;-66
2022/03/18 08:44:02;;;;;;;10.27;4.40;;;;;;;25.27;9.58;101963.81;4936336;29;20091;-66
2022/03/18 08:46:29;;;;;;;6.45;3.90;;;;;;;26.36;8.95;101961.19;4935029;29;20062;-63
2022/03/18 08:48:57;;;;;;;6.18;3.70;;;;;;;27.62;8.64;101958.63;4934472;29;20463;-65
2022/03/18 08:51:24;;;;;;;10.65;3.88;;;;;;;27.07;8.51;101960.31;4949032;28;20087;-65
2022/03/18 08:53:51;;;;;;;6.15;3.60;;;;;;;26.49;8.69;101958.94;4935293;29;20091;-65
2022/03/18 08:56:23;;;;;;;8.00;3.67;;;;;;;26.44;8.36;101951.50;4947369;29;20071;-65
2022/03/18 08:58:51;;;;;;;11.63;3.75;;;;;;;27.46;7.85;101958.00;4935219;29;20048;-65
2022/03/18 09:01:18;;;;;;;16.75;4.32;;;;;;;27.76;8.00;101962.47;4932883;29;20070;-65
2022/03/18 09:03:47;;;;;;;7.47;3.72;;;;;;;26.76;8.11;101957.78;4918177;29;20064;-64
2022/03/18 09:06:14;;;;;;;7.35;3.80;;;;;;;27.72;7.93;101953.03;4934307;29;20067;-65
2022/03/18 09:08:42;;;;;;;6.35;3.67;;;;;;;28.69;7.24;101954.47;4934825;29;20079;-65
2022/03/18 09:11:10;;;;;;;5.63;3.70;;;;;;;29.69;6.65;101952.59;4935023;29;20055;-65
2022/03/18 09:13:38;;;;;;;6.05;3.90;;;;;;;30.50;6.68;101951.97;4934034;29;20396;-66
2022/03/18 09:16:12;;;;;;;16.42;4.90;;;;;;;31.16;6.67;101951.91;4934129;29;20578;-66
2022/03/18 09:18:59;;;;;;;6.22;3.83;;;;;;;31.15;6.10;101947.41;4932923;29;20118;-68
2022/03/18 09:21:27;;;;;;;43.22;6.25;;;;;;;29.69;6.12;101952.59;4933397;29;20094;-64
2022/03/18 09:23:55;;;;;;;9.77;3.63;;;;;;;28.34;7.04;101949.22;4933245;29;20086;-64
2022/03/18 09:26:22;;;;;;;14.50;3.72;;;;;;;29.10;6.63;101947.38;4933317;29;20102;-63
2022/03/18 09:28:52;;;;;;;8.98;3.78;;;;;;;29.16;6.56;101948.63;4934759;29;20073;-66
2022/03/18 09:31:19;;;;;;;5.82;3.53;;;;;;;28.76;6.59;101940.16;4932411;29;20396;-66
2022/03/18 09:33:48;;;;;;;6.03;3.75;;;;;;;29.81;6.52;101925.59;4930604;29;20115;-65
2022/03/18 09:36:18;;;;;;;7.72;3.10;;;;;;;30.18;6.33;101926.06;4934158;29;20043;-66
2022/03/18 09:38:46;;;;;;;12.23;3.70;;;;;;;30.31;6.06;101932.28;4933808;29;20400;-66
2022/03/18 09:41:13;;;;;;;7.45;3.25;;;;;;;30.55;5.88;101925.69;4934172;29;20477;-67
2022/03/18 09:43:41;;;;;;;7.50;3.65;;;;;;;30.79;5.88;101922.81;4934499;29;20086;-67
2022/03/18 09:46:10;;;;;;;15.48;3.85;;;;;;;31.07;5.89;101924.81;4934286;29;20130;-66
2022/03/18 09:49:00;;;;;;;6.63;2.78;;;;;;;27.45;6.89;101922.88;4931693;29;20522;-66
2022/03/18 09:51:27;;;;;;;;;;;;;;;22.36;9.33;101933.59;4933085;29;20079;-67
2022/03/18 09:54:15;;;;;;;10.05;3.70;;;;;;;18.50;11.58;101927.81;4933814;29;20021;-66
2022/03/18 09:56:44;;;;;;;10.25;3.67;;;;;;;15.95;13.05;101933.81;4932817;29;20048;-66
2022/03/18 09:59:12;;;;;;;9.70;4.20;;;;;;;14.26;13.92;101927.03;4934100;29;20146;-65
2022/03/18 10:01:39;;;;;;;12.45;3.88;;;;;;;13.45;14.78;101929.03;4932500;29;20088;-66
2022/03/18 10:04:11;;;;;;;9.02;3.55;;;;;;;12.26;15.88;101923.97;4933519;29;20430;-65
2022/03/18 10:06:42;;;;;;;10.27;3.90;;;;;;;11.26;16.45;101922.25;4932462;29;20058;-66
2022/03/18 10:09:11;;;;;;;7.43;4.07;;;;;;;10.46;17.04;101911.03;4934026;29;20392;-66
2022/03/18 10:11:42;;;;;;;12.95;4.47;;;;;;;10.01;17.58;101916.41;4932541;29;20056;-67
2022/03/18 10:14:15;;;;;;;8.32;4.20;;;;;;;9.54;18.19;101919.22;4934030;29;20103;-66
2022/03/18 10:16:47;;;;;;;7.25;3.80;;;;;;;8.98;19.18;101915.19;4932599;29;20554;-66
2022/03/18 10:19:23;;;;;;;7.50;4.07;;;;;;;8.54;19.67;101916.41;4934035;29;20051;-67
2022/03/18 10:22:05;;;;;;;8.60;3.97;;;;;;;8.22;19.96;101909.94;4932345;29;20397;-67
2022/03/18 10:24:35;;;;;;;14.65;3.17;;;;;;;8.18;19.88;101917.09;4933434;29;20507;-67
2022/03/18 10:27:21;;;;;;;5.27;3.23;;;;;;;8.05;19.97;101906.38;4932533;29;20529;-66
2022/03/18 10:29:50;;;;;;;5.55;3.10;;;;;;;7.97;20.59;101904.09;4930844;29;20075;-66
2022/03/18 10:32:19;;;;;;;8.25;3.45;;;;;;;7.47;21.42;101892.31;4933300;29;20143;-67
2022/03/18 10:37:47;;;;;;;4.00;2.40;;;;;;;7.16;21.86;101893.78;4932460;29;20043;-66
2022/03/18 10:40:15;;;;;;;6.03;3.33;;;;;;;7.25;21.73;101894.19;4932172;29;20643;-65
2022/03/18 10:42:56;;;;;;;8.27;3.47;;;;;;;7.11;22.36;101902.00;4933091;29;20055;-66
2022/03/18 10:45:23;;;;;;;7.43;2.90;;;;;;;7.06;21.81;101901.09;4931986;29;20047;-66
2022/03/18 10:47:51;;;;;;;6.68;3.17;;;;;;;7.03;22.00;101890.53;4933691;29;20090;-66
2022/03/18 10:50:26;;;;;;;9.93;3.55;;;;;;;6.97;22.08;101888.75;4932342;29;20059;-65
2022/03/18 10:52:53;;;;;;;6.07;3.33;;;;;;;6.74;22.92;101894.44;4933762;29;20090;-66
2022/03/18 10:55:29;;;;;;;8.73;3.22;;;;;;;6.75;22.69;101885.09;4932004;29;20127;-65
2022/03/18 10:57:57;;;;;;;9.40;2.97;;;;;;;6.81;22.75;101876.59;4933605;29;20785;-66
2022/03/18 11:00:28;;;;;;;7.55;3.17;;;;;;;6.88;23.16;101881.97;4915518;29;20056;-65
2022/03/18 11:03:00;;;;;;;5.68;3.20;;;;;;;6.91;23.06;101870.41;4933600;29;20525;-66
2022/03/18 11:05:35;;;;;;;6.40;3.00;;;;;;;6.97;23.05;101869.41;4932090;29;20075;-66
2022/03/18 11:08:04;;;;;;;9.23;2.72;;;;;;;6.87;23.38;101881.13;4933798;29;20056;-66
2022/03/18 11:13:25;;;;;;;10.10;2.90;;;;;;;6.88;23.43;101873.69;4932743;29;20056;-66
2022/03/18 11:15:53;;;;;;;6.78;2.85;;;;;;;6.90;22.78;101871.50;4930123;29;20158;-66
2022/03/18 11:18:21;;;;;;;6.03;3.13;;;;;;;6.84;23.37;101859.50;4932522;29;20467;-66
2022/03/18 11:20:50;;;;;;;9.82;2.92;;;;;;;6.84;23.48;101864.22;4929976;29;20142;-66
2022/03/18 11:23:19;;;;;;;18.95;2.83;;;;;;;6.94;22.91;101867.97;4932663;29;20048;-66
2022/03/18 11:25:50;;;;;;;8.07;2.67;;;;;;;6.91;23.69;101853.81;4932842;29;20095;-66
2022/03/18 11:28:19;;;;;;;6.50;2.33;;;;;;;6.81;23.94;101865.53;4932697;29;20102;-66
2022/03/18 11:30:48;;;;;;;4.65;2.53;;;;;;;6.75;24.39;101858.25;4933151;29;20051;-65
2022/03/18 11:33:15;;;;;;;9.25;2.90;;;;;;;6.78;24.35;101854.16;4932813;29;20430;-66
2022/03/18 11:35:51;;;;;;;5.00;2.08;;;;;;;6.75;24.35;101852.72;4932702;29;20071;-68
2022/03/18 11:38:28;;;;;;;9.93;2.80;;;;;;;6.74;24.11;101848.28;4936138;29;20197;-67
2022/03/18 11:40:57;;;;;;;15.10;5.60;;;;;;;6.78;23.85;101851.38;4933405;29;20143;-66
2022/03/18 11:43:58;;;;;;;9.15;2.67;;;;;;;6.62;24.19;101850.28;4935501;29;20247;-66
2022/03/18 11:46:27;;;;;;;5.28;2.53;;;;;;;6.49;24.65;101845.09;4929979;29;20134;-65
2022/03/18 11:49:02;;;;;;;6.50;2.60;;;;;;;6.46;24.52;101841.97;4935275;29;20043;-68
2022/03/18 11:51:42;;;;;;;3.95;2.20;;;;;;;6.45;24.52;101837.56;4936514;29;20064;-65
2022/03/18 11:54:19;;;;;;;5.80;2.97;;;;;;;6.51;24.37;101842.06;4935858;29;20056;-66
2022/03/18 11:56:51;;;;;;;7.38;2.50;;;;;;;6.53;24.49;101829.66;4935243;29;20135;-66
2022/03/18 11:59:31;;;;;;;5.25;2.55;;;;;;;6.58;24.79;101837.22;4933285;29;20065;-66